LFLP METAR and TAF | Updated Today

LFLP METAR

Annecy-Haute-Savoie-Mont Blanc Airport

Observation time: 14 min. ago

LFLP 011500Z AUTO 30008KT 270V330 9999 FEW037 06/00 Q1028 NOSIG

Need help? Read our tutorial on how to read METARs or read the parsed version below.

Annecy-Haute-Savoie-Mont Blanc Airport (LFLP) METAR

  • Weather conditions on Wed, 01 Feb 2023 15:00:00 +0000 (14 min. ago):
  • Present conditions: Dry
  • Clouds: A few at 1128 meters
  • Visibility: Greater than 10 km
  • Wind: 300 degrees at 8 knots
  • Temperature: 6 celsius
  • Dew point: 0 celsius
  • Pressure: 1028 millibars
  • Remarks: None


Useful to know...

LFLP TAF

Annecy-Haute-Savoie-Mont Blanc Airport

TAF LFLP 011400Z 0115/0215 VRB04KT CAVOK PROB30 TEMPO 0121/0203 BKN028
Observation time: 74 min. ago
Need help? Read our tutorial on how to read TAFs or read the parsed version below.

Parsed version of TAF for Annecy-Haute-Savoie-Mont Blanc Airport (LFLP)

  • From 01 February at 15:00 UTC, to day 02 of the month at 15:00 UTC
  • Visibility: Greater than 10 km
  • Wind: Variable at 4
  • Expected to arise temporarily, from 01 February at 21:00 UTC, to day 02 of the month at 03:00 UTC
    Probability of 30%
  • Clouds: Broken sky at 853 meters